TVF8776 LFLL-DTTA
Flight info
| Callsign | TVF8776 |
|---|---|
| Flight time | N/A |
| Altitude | 37000 |
| Route | ROMAM8S/17R ROMAM T43 BEPER DCT RETNO DCT KOLON DCT LOKDU DCT PELOS DCT IPROM DCT KOVAS DCT CAR DCT NOLSI UA868 TUC |
| Aircraft | B738/M-SDE2E3FGHIRWXY/LB1 |
Departure
| Time | N/A |
|---|---|
| Airport | Lyon Saint-Exupéry Airport (LFLL) |
Arrival
| Time | 2026-05-04 11:43 |
|---|---|
| Airport | Tunis Carthage International Airport (DTTA) |
| Time | Latitude | Longitude | Altitude | Speed | Heading |
|---|---|---|---|---|---|
| 2026-05-04 10:19 | 45.08261 | 4.55135 | 23647 ft | 375 kts | 191° |
| 2026-05-04 10:19 | 45.05672 | 4.54595 | 24038 ft | 378 kts | 188° |
| 2026-05-04 10:19 | 45.03072 | 4.54162 | 24431 ft | 381 kts | 188° |
| 2026-05-04 10:19 | 45.00437 | 4.53735 | 24874 ft | 382 kts | 189° |
| 2026-05-04 10:20 | 44.97810 | 4.53124 | 25280 ft | 383 kts | 192° |
| 2026-05-04 10:20 | 44.95178 | 4.52486 | 25665 ft | 386 kts | 187° |
| 2026-05-04 10:20 | 44.92485 | 4.52734 | 26014 ft | 394 kts | 169° |
| 2026-05-04 10:20 | 44.89938 | 4.54260 | 26403 ft | 404 kts | 151° |
| 2026-05-04 10:21 | 44.87671 | 4.56650 | 26782 ft | 410 kts | 144° |
| 2026-05-04 10:21 | 44.85494 | 4.59282 | 27123 ft | 414 kts | 143° |
| 2026-05-04 10:21 | 44.83339 | 4.61979 | 27465 ft | 418 kts | 143° |
| 2026-05-04 10:21 | 44.81164 | 4.64725 | 27842 ft | 420 kts | 142° |
| 2026-05-04 10:22 | 44.76797 | 4.70269 | 28571 ft | 425 kts | 142° |
| 2026-05-04 10:22 | 44.74597 | 4.73073 | 28869 ft | 428 kts | 142° |
| 2026-05-04 10:22 | 44.72388 | 4.75892 | 29204 ft | 430 kts | 142° |
| 2026-05-04 10:23 | 44.70170 | 4.78726 | 29505 ft | 433 kts | 142° |
| 2026-05-04 10:23 | 44.67932 | 4.81588 | 29768 ft | 435 kts | 142° |
| 2026-05-04 10:25 | 44.51895 | 5.01842 | 31263 ft | 451 kts | 143° |
| 2026-05-04 10:25 | 44.49547 | 5.04795 | 31495 ft | 452 kts | 143° |
| 2026-05-04 10:25 | 44.47210 | 5.07732 | 31775 ft | 451 kts | 144° |
| 2026-05-04 10:25 | 44.44876 | 5.10665 | 32093 ft | 451 kts | 144° |
| 2026-05-04 10:26 | 44.42541 | 5.13593 | 32359 ft | 451 kts | 144° |
| 2026-05-04 10:26 | 44.40233 | 5.16485 | 32606 ft | 452 kts | 144° |
| 2026-05-04 10:26 | 44.37890 | 5.19414 | 32893 ft | 452 kts | 144° |
| 2026-05-04 10:26 | 44.35552 | 5.22336 | 33166 ft | 451 kts | 144° |
| 2026-05-04 10:27 | 44.33205 | 5.25266 | 33446 ft | 452 kts | 144° |
| 2026-05-04 10:27 | 44.30860 | 5.28188 | 33663 ft | 452 kts | 145° |
| 2026-05-04 10:27 | 44.28511 | 5.31114 | 33954 ft | 452 kts | 145° |
| 2026-05-04 10:27 | 44.26165 | 5.34032 | 34234 ft | 452 kts | 145° |
| 2026-05-04 10:28 | 44.23816 | 5.36952 | 34480 ft | 452 kts | 145° |
| 2026-05-04 10:28 | 44.21466 | 5.39869 | 34720 ft | 452 kts | 145° |
| 2026-05-04 10:28 | 44.19115 | 5.42783 | 34949 ft | 452 kts | 145° |
| 2026-05-04 10:28 | 44.16763 | 5.45696 | 35191 ft | 452 kts | 145° |
| 2026-05-04 10:29 | 44.14415 | 5.48601 | 35430 ft | 452 kts | 145° |
| 2026-05-04 10:29 | 44.12055 | 5.51517 | 35654 ft | 453 kts | 145° |
| 2026-05-04 10:29 | 44.09702 | 5.54421 | 35875 ft | 453 kts | 145° |
| 2026-05-04 10:29 | 44.07343 | 5.57329 | 36106 ft | 453 kts | 145° |
| 2026-05-04 10:30 | 44.04980 | 5.60239 | 36305 ft | 453 kts | 145° |
| 2026-05-04 10:30 | 44.04218 | 5.61176 | 36368 ft | 454 kts | 145° |
| 2026-05-04 10:32 | 43.79089 | 5.91917 | 37078 ft | 454 kts | 146° |
| 2026-05-04 10:33 | 43.74335 | 5.97690 | 37061 ft | 455 kts | 146° |
| 2026-05-04 10:33 | 43.69606 | 6.03422 | 37075 ft | 455 kts | 146° |
| 2026-05-04 10:34 | 43.64833 | 6.09192 | 37064 ft | 456 kts | 146° |
| 2026-05-04 10:34 | 43.60052 | 6.14962 | 37068 ft | 457 kts | 146° |
| 2026-05-04 10:35 | 43.55241 | 6.20755 | 37067 ft | 458 kts | 146° |
| 2026-05-04 10:35 | 43.50430 | 6.26535 | 37074 ft | 460 kts | 146° |
| 2026-05-04 10:36 | 43.45594 | 6.32332 | 37072 ft | 461 kts | 146° |
| 2026-05-04 10:36 | 43.40773 | 6.38099 | 37074 ft | 462 kts | 146° |
| 2026-05-04 10:37 | 43.35920 | 6.43892 | 37076 ft | 463 kts | 146° |
| 2026-05-04 10:37 | 43.31048 | 6.49694 | 37069 ft | 464 kts | 146° |
| 2026-05-04 10:39 | 43.13913 | 6.70001 | 37077 ft | 466 kts | 146° |
| 2026-05-04 10:40 | 43.09006 | 6.75787 | 37075 ft | 466 kts | 146° |
| 2026-05-04 10:40 | 43.04081 | 6.81581 | 37073 ft | 466 kts | 146° |
| 2026-05-04 10:41 | 42.99165 | 6.87353 | 37075 ft | 466 kts | 146° |
| 2026-05-04 10:41 | 42.94241 | 6.93122 | 37075 ft | 466 kts | 146° |
| 2026-05-04 10:42 | 42.89313 | 6.98881 | 37075 ft | 467 kts | 146° |
| 2026-05-04 10:42 | 42.84400 | 7.04611 | 37079 ft | 467 kts | 146° |
| 2026-05-04 10:43 | 42.79454 | 7.10367 | 37076 ft | 468 kts | 146° |
| 2026-05-04 10:45 | 42.59546 | 7.33408 | 37078 ft | 472 kts | 146° |
| 2026-05-04 10:45 | 42.54536 | 7.39176 | 37081 ft | 472 kts | 146° |
| 2026-05-04 10:46 | 42.49518 | 7.44940 | 37076 ft | 473 kts | 146° |
| 2026-05-04 10:46 | 42.44482 | 7.50713 | 37077 ft | 474 kts | 146° |
| 2026-05-04 10:47 | 42.39434 | 7.56486 | 37073 ft | 475 kts | 146° |
| 2026-05-04 10:47 | 42.34417 | 7.62212 | 37072 ft | 476 kts | 146° |
| 2026-05-04 10:49 | 42.14096 | 7.85278 | 37074 ft | 478 kts | 146° |
| 2026-05-04 10:50 | 42.09024 | 7.91005 | 37074 ft | 478 kts | 146° |
| 2026-05-04 10:51 | 41.89408 | 8.04823 | 37086 ft | 446 kts | 181° |
| 2026-05-04 10:52 | 41.86314 | 8.05262 | 37070 ft | 446 kts | 181° |
| 2026-05-04 10:52 | 41.80112 | 8.06156 | 37075 ft | 448 kts | 181° |
| 2026-05-04 10:54 | 41.55250 | 8.10032 | 37075 ft | 451 kts | 181° |
| 2026-05-04 10:56 | 41.30403 | 8.13902 | 37078 ft | 448 kts | 181° |
| 2026-05-04 10:57 | 41.24218 | 8.14861 | 37078 ft | 447 kts | 181° |
| 2026-05-04 10:57 | 41.18050 | 8.15980 | 37068 ft | 453 kts | 174° |
| 2026-05-04 10:58 | 41.12129 | 8.19191 | 37074 ft | 470 kts | 155° |
| 2026-05-04 10:58 | 41.06517 | 8.23617 | 37081 ft | 465 kts | 160° |
| 2026-05-04 10:59 | 41.00693 | 8.27183 | 37081 ft | 463 kts | 163° |
| 2026-05-04 10:59 | 40.94784 | 8.30599 | 37074 ft | 464 kts | 163° |
| 2026-05-04 11:00 | 40.88864 | 8.34075 | 37065 ft | 465 kts | 163° |
| 2026-05-04 11:02 | 40.65113 | 8.48254 | 37057 ft | 472 kts | 162° |
| 2026-05-04 11:05 | 40.20255 | 8.74753 | 37100 ft | 470 kts | 162° |
| 2026-05-04 11:06 | 40.14283 | 8.78251 | 37088 ft | 470 kts | 162° |
| 2026-05-04 11:06 | 40.08308 | 8.81743 | 37101 ft | 470 kts | 162° |
| 2026-05-04 11:10 | 39.66059 | 9.06258 | 37104 ft | 479 kts | 162° |
| 2026-05-04 11:12 | 39.43119 | 9.24744 | 37074 ft | 488 kts | 153° |
| 2026-05-04 11:12 | 39.37382 | 9.29430 | 37097 ft | 487 kts | 153° |
| 2026-05-04 11:13 | 39.32586 | 9.33340 | 37093 ft | 486 kts | 153° |
| 2026-05-04 11:13 | 39.26894 | 9.37976 | 37096 ft | 487 kts | 153° |
| 2026-05-04 11:14 | 39.25923 | 9.38766 | 36958 ft | 489 kts | 153° |
| 2026-05-04 11:16 | 38.98386 | 9.60215 | 32542 ft | 460 kts | 155° |
| 2026-05-04 11:16 | 38.95612 | 9.62226 | 32127 ft | 457 kts | 154° |
| 2026-05-04 11:16 | 38.92888 | 9.64210 | 31733 ft | 454 kts | 154° |
| 2026-05-04 11:17 | 38.90155 | 9.66208 | 31319 ft | 451 kts | 154° |
| 2026-05-04 11:17 | 38.87437 | 9.68198 | 30917 ft | 448 kts | 153° |
| 2026-05-04 11:19 | 38.68863 | 9.81772 | 27951 ft | 427 kts | 153° |
| 2026-05-04 11:19 | 38.66286 | 9.83648 | 27538 ft | 424 kts | 153° |
| 2026-05-04 11:19 | 38.63728 | 9.85509 | 27131 ft | 421 kts | 153° |
| 2026-05-04 11:19 | 38.61193 | 9.87351 | 26732 ft | 418 kts | 153° |
| 2026-05-04 11:20 | 38.58663 | 9.89188 | 26329 ft | 415 kts | 153° |
| 2026-05-04 11:20 | 38.56158 | 9.91006 | 25936 ft | 413 kts | 153° |
| 2026-05-04 11:20 | 38.53702 | 9.92786 | 25550 ft | 410 kts | 153° |
| 2026-05-04 11:20 | 38.51227 | 9.94580 | 25150 ft | 408 kts | 153° |
| 2026-05-04 11:22 | 38.34268 | 10.06828 | 22299 ft | 391 kts | 153° |
| 2026-05-04 11:22 | 38.31903 | 10.08531 | 21906 ft | 388 kts | 153° |
| 2026-05-04 11:23 | 38.29564 | 10.10214 | 21516 ft | 385 kts | 153° |
| 2026-05-04 11:23 | 38.27235 | 10.11888 | 21134 ft | 382 kts | 153° |
| 2026-05-04 11:24 | 38.13633 | 10.21644 | 18907 ft | 368 kts | 153° |
| 2026-05-04 11:25 | 38.11409 | 10.23235 | 18542 ft | 366 kts | 153° |
| 2026-05-04 11:25 | 38.09195 | 10.24818 | 18142 ft | 364 kts | 153° |
| 2026-05-04 11:25 | 38.06995 | 10.26389 | 17731 ft | 363 kts | 153° |
| 2026-05-04 11:26 | 38.02337 | 10.28448 | 17031 ft | 348 kts | 176° |
| 2026-05-04 11:27 | 37.86263 | 10.27789 | 14879 ft | 323 kts | 185° |
| 2026-05-04 11:28 | 37.84012 | 10.27708 | 14342 ft | 327 kts | 183° |
| 2026-05-04 11:28 | 37.81712 | 10.27733 | 13848 ft | 331 kts | 182° |
| 2026-05-04 11:28 | 37.79404 | 10.27798 | 13397 ft | 330 kts | 181° |
| 2026-05-04 11:28 | 37.77112 | 10.27868 | 13018 ft | 328 kts | 181° |
| 2026-05-04 11:29 | 37.74874 | 10.27933 | 12663 ft | 324 kts | 181° |
| 2026-05-04 11:29 | 37.72599 | 10.27994 | 12308 ft | 321 kts | 181° |
| 2026-05-04 11:29 | 37.70375 | 10.28048 | 11963 ft | 318 kts | 181° |
| 2026-05-04 11:29 | 37.68176 | 10.28098 | 11623 ft | 315 kts | 181° |
| 2026-05-04 11:31 | 37.53480 | 10.28407 | 9817 ft | 284 kts | 181° |
| 2026-05-04 11:33 | 37.40034 | 10.28677 | 7865 ft | 270 kts | 181° |
| 2026-05-04 11:33 | 37.38164 | 10.28715 | 7590 ft | 268 kts | 181° |
| 2026-05-04 11:33 | 37.36303 | 10.28753 | 7321 ft | 267 kts | 181° |
| 2026-05-04 11:34 | 37.34450 | 10.28790 | 7047 ft | 265 kts | 181° |
| 2026-05-04 11:34 | 37.32609 | 10.28827 | 6784 ft | 263 kts | 181° |
| 2026-05-04 11:34 | 37.30801 | 10.28864 | 6507 ft | 262 kts | 181° |
| 2026-05-04 11:34 | 37.28970 | 10.28901 | 6195 ft | 262 kts | 181° |
| 2026-05-04 11:35 | 37.27144 | 10.28937 | 5919 ft | 261 kts | 181° |
| 2026-05-04 11:35 | 37.25333 | 10.28973 | 5642 ft | 260 kts | 181° |
| 2026-05-04 11:35 | 37.23552 | 10.29010 | 5382 ft | 258 kts | 181° |
| 2026-05-04 11:35 | 37.21761 | 10.29045 | 5122 ft | 257 kts | 181° |
| 2026-05-04 11:36 | 37.19975 | 10.29082 | 4862 ft | 256 kts | 180° |
| 2026-05-04 11:36 | 37.18197 | 10.29118 | 4592 ft | 255 kts | 181° |
| 2026-05-04 11:36 | 37.16430 | 10.29153 | 4314 ft | 253 kts | 181° |
| 2026-05-04 11:36 | 37.14681 | 10.29188 | 4138 ft | 247 kts | 181° |
| 2026-05-04 11:37 | 37.12988 | 10.29223 | 4032 ft | 239 kts | 181° |
| 2026-05-04 11:37 | 37.11350 | 10.29257 | 3926 ft | 232 kts | 180° |
| 2026-05-04 11:37 | 37.09769 | 10.29253 | 3823 ft | 223 kts | 185° |
| 2026-05-04 11:37 | 37.08266 | 10.29003 | 3725 ft | 213 kts | 192° |
| 2026-05-04 11:38 | 37.06829 | 10.28626 | 3640 ft | 208 kts | 193° |
| 2026-05-04 11:38 | 37.05439 | 10.28241 | 3472 ft | 205 kts | 194° |
| 2026-05-04 11:38 | 37.04069 | 10.27866 | 3271 ft | 199 kts | 193° |
| 2026-05-04 11:38 | 37.02750 | 10.27506 | 3153 ft | 189 kts | 193° |
| 2026-05-04 11:39 | 37.01449 | 10.27151 | 2975 ft | 194 kts | 193° |
| 2026-05-04 11:39 | 37.00130 | 10.26792 | 2737 ft | 192 kts | 193° |
| 2026-05-04 11:40 | 36.93543 | 10.24989 | 1445 ft | 139 kts | 192° |
| 2026-05-04 11:41 | 36.92609 | 10.24739 | 1264 ft | 138 kts | 189° |
| 2026-05-04 11:41 | 36.91647 | 10.24483 | 1082 ft | 142 kts | 191° |
| 2026-05-04 11:41 | 36.90665 | 10.24215 | 898 ft | 148 kts | 188° |
| 2026-05-04 11:41 | 36.89659 | 10.23942 | 686 ft | 146 kts | 189° |
| 2026-05-04 11:42 | 36.88653 | 10.23674 | 461 ft | 150 kts | 188° |
| 2026-05-04 11:42 | 36.87657 | 10.23399 | 286 ft | 145 kts | 188° |
| 2026-05-04 11:42 | 36.86671 | 10.23127 | 65 ft | 144 kts | 189° |
| 2026-05-04 11:42 | 36.85720 | 10.22872 | 30 ft | 130 kts | 193° |
| 2026-05-04 11:43 | 36.84993 | 10.22670 | 33 ft | 79 kts | 191° |
| 2026-05-04 11:43 | 36.84717 | 10.22596 | 29 ft | 18 kts | 192° |
| 2026-05-04 11:43 | 36.84599 | 10.22539 | 27 ft | 18 kts | 230° |
| 2026-05-04 11:43 | 36.84511 | 10.22431 | 29 ft | 18 kts | 227° |
| 2026-05-04 11:44 | 36.84483 | 10.22307 | 29 ft | 14 kts | 275° |
| 2026-05-04 11:44 | 36.84521 | 10.22266 | 29 ft | 7 kts | 359° |
| 2026-05-04 11:44 | 36.84567 | 10.22277 | 29 ft | 7 kts | 11° |
| 2026-05-04 11:44 | 36.84612 | 10.22288 | 29 ft | 7 kts | 12° |
| 2026-05-04 11:45 | 36.84679 | 10.22307 | 29 ft | 15 kts | 11° |
| 2026-05-04 11:45 | 36.84809 | 10.22342 | 29 ft | 23 kts | 13° |
| 2026-05-04 11:45 | 36.84861 | 10.22349 | 29 ft | 0 kts | 351° |
| 2026-05-04 11:45 | 36.84870 | 10.22335 | 28 ft | 4 kts | 292° |
| 2026-05-04 11:46 | 36.84878 | 10.22251 | 29 ft | 12 kts | 279° |
| 2026-05-04 11:46 | 36.84895 | 10.22140 | 29 ft | 14 kts | 281° |
| 2026-05-04 11:46 | 36.84857 | 10.22042 | 29 ft | 14 kts | 199° |
| 2026-05-04 11:46 | 36.84804 | 10.22027 | 29 ft | 4 kts | 229° |
| 2026-05-04 11:47 | 36.84805 | 10.22013 | 29 ft | 2 kts | 292° |
| 2026-05-04 11:47 | 36.84815 | 10.21967 | 29 ft | 7 kts | 283° |
| 2026-05-04 11:47 | 36.84820 | 10.21939 | 29 ft | 0 kts | 282° |